Time;durP1;ratioP1;P1;durP2;ratioP2;P2;SDS_P1;SDS_P2;PMS_P1;PMS_P2;Temp;Humidity;BMP_temperature;BMP_pressure;BME280_temperature;BME280_humidity;BME280_pressure;Samples;Min_cycle;Max_cycle;Signal;HPM_P1;HPM_P2
2022/12/20 00:01:45;;;;;;;44.53;25.43;;;;;;;18.34;40.36;100778.88;5068250;28;20200;-65
2022/12/20 00:04:11;;;;;;;38.83;25.10;;;;;;;18.70;40.77;100755.72;5081764;28;20198;-65
2022/12/20 00:06:37;;;;;;;34.33;23.97;;;;;;;19.14;40.91;100755.19;5064567;28;20175;-64
2022/12/20 00:09:04;;;;;;;42.73;24.90;;;;;;;19.32;41.48;100764.19;5073494;28;20489;-65
2022/12/20 00:11:29;;;;;;;33.70;22.30;;;;;;;19.40;41.72;100771.72;5047493;28;20167;-65
2022/12/20 00:13:56;;;;;;;35.07;21.63;;;;;;;19.29;42.59;100774.38;5055533;28;20423;-64
2022/12/20 00:16:23;;;;;;;38.83;20.67;;;;;;;19.31;42.69;100759.69;5048013;28;20204;-65
2022/12/20 00:18:52;;;;;;;29.80;19.43;;;;;;;19.08;43.38;100761.56;5060837;28;20419;-65
2022/12/20 00:21:19;;;;;;;32.80;19.90;;;;;;;19.19;43.28;100766.34;5091434;28;20931;-64
2022/12/20 00:23:44;;;;;;;36.30;19.10;;;;;;;19.12;42.94;100743.25;5092042;28;20450;-65
2022/12/20 00:26:17;;;;;;;35.47;18.00;;;;;;;19.07;43.28;100766.44;5072914;28;20448;-65
2022/12/20 00:28:42;;;;;;;29.07;17.40;;;;;;;19.11;43.78;100761.63;5079094;28;20198;-65
2022/12/20 00:31:08;;;;;;;28.40;18.10;;;;;;;18.98;44.29;100765.84;5088463;28;20765;-65
2022/12/20 00:33:35;;;;;;;30.27;18.77;;;;;;;18.96;44.25;100756.78;5091662;28;20320;-65
2022/12/20 00:36:00;;;;;;;33.30;18.07;;;;;;;18.97;43.86;100761.28;5066163;28;20429;-65
2022/12/20 00:38:26;;;;;;;33.27;18.00;;;;;;;18.97;44.07;100749.84;5072204;28;20511;-65
2022/12/20 00:41:11;;;;;;;28.97;16.97;;;;;;;18.90;44.09;100755.41;5074293;28;20175;-65
2022/12/20 00:43:37;;;;;;;29.57;17.30;;;;;;;18.85;44.38;100755.69;5056268;28;20236;-65
2022/12/20 00:46:03;;;;;;;28.47;17.07;;;;;;;18.83;44.46;100755.25;5058483;28;20467;-66
2022/12/20 00:48:29;;;;;;;31.50;17.70;;;;;;;18.73;44.68;100750.09;5053751;28;20189;-66
2022/12/20 00:51:02;;;;;;;27.00;17.00;;;;;;;18.81;44.71;100754.78;5057561;28;20179;-65
2022/12/20 00:53:28;;;;;;;26.60;16.00;;;;;;;18.71;44.88;100751.69;5089569;28;20222;-65
2022/12/20 00:55:53;;;;;;;23.53;15.77;;;;;;;18.64;44.84;100738.03;5075826;28;20408;-65
2022/12/20 00:58:19;;;;;;;30.40;16.00;;;;;;;18.72;44.89;100750.47;5096229;28;20498;-65
2022/12/20 01:00:44;;;;;;;22.37;16.33;;;;;;;18.71;45.09;100751.69;5077501;28;20179;-65
2022/12/20 01:03:10;;;;;;;23.53;15.23;;;;;;;18.81;44.79;100756.84;5071255;28;20186;-65
2022/12/20 01:05:35;;;;;;;24.57;16.00;;;;;;;18.69;44.99;100751.19;5074116;28;20214;-65
2022/12/20 01:08:02;;;;;;;22.27;15.07;;;;;;;18.68;45.03;100749.56;5072190;28;20603;-66
2022/12/20 01:10:27;;;;;;;21.50;14.50;;;;;;;18.78;45.07;100751.84;5062925;28;20187;-65
2022/12/20 01:12:53;;;;;;;21.63;14.57;;;;;;;18.67;44.24;100765.88;5102790;28;20425;-64
2022/12/20 01:15:19;;;;;;;26.90;15.63;;;;;;;18.60;44.31;100751.41;5077957;28;20195;-64
2022/12/20 01:17:44;;;;;;;22.50;15.17;;;;;;;18.46;43.70;100747.38;5069392;28;20180;-64
2022/12/20 01:20:10;;;;;;;28.00;15.33;;;;;;;18.43;43.68;100745.25;5076582;28;20234;-65
2022/12/20 01:22:35;;;;;;;26.90;15.20;;;;;;;18.43;43.89;100740.38;5105534;28;20217;-64
2022/12/20 01:25:01;;;;;;;23.93;14.63;;;;;;;18.48;43.88;100745.81;5094620;28;20189;-64
2022/12/20 01:27:27;;;;;;;24.43;13.20;;;;;;;18.53;44.00;100739.81;5092261;28;20167;-64
2022/12/20 01:29:53;;;;;;;20.57;14.00;;;;;;;18.52;43.89;100729.53;5081418;28;20187;-64
2022/12/20 01:32:19;;;;;;;21.53;14.50;;;;;;;18.50;44.17;100743.38;5072204;28;20406;-64
2022/12/20 01:34:44;;;;;;;21.40;13.97;;;;;;;18.51;44.20;100733.59;5055177;28;20176;-64
2022/12/20 01:37:09;;;;;;;20.53;13.50;;;;;;;18.47;44.04;100734.72;5093028;28;20171;-64
2022/12/20 01:39:35;;;;;;;17.77;12.73;;;;;;;18.47;44.67;100734.72;5082734;28;20191;-64
2022/12/20 01:42:00;;;;;;;19.30;12.93;;;;;;;18.46;44.68;100733.06;5097173;28;20206;-64
2022/12/20 01:44:26;;;;;;;17.83;12.77;;;;;;;18.41;44.80;100725.59;5085991;28;20201;-64
2022/12/20 01:46:51;;;;;;;22.20;13.57;;;;;;;18.43;44.56;100726.06;5083058;28;20187;-64
2022/12/20 01:49:39;;;;;;;20.83;13.47;;;;;;;18.47;44.96;100723.28;5071201;28;20175;-64
2022/12/20 01:52:12;;;;;;;19.20;13.20;;;;;;;18.45;44.75;100731.38;5054303;28;20175;-64
2022/12/20 01:54:40;;;;;;;18.30;12.77;;;;;;;18.39;45.22;100742.28;5094275;28;20494;-64
2022/12/20 01:57:12;;;;;;;21.47;12.60;;;;;;;18.44;45.23;100721.16;5097953;28;20435;-64
2022/12/20 01:59:39;;;;;;;20.77;13.43;;;;;;;18.40;45.07;100723.94;5072084;28;20433;-64
2022/12/20 02:02:06;;;;;;;15.80;11.83;;;;;;;18.37;45.18;100713.22;5071744;28;20786;-64
2022/12/20 02:04:32;;;;;;;18.30;12.40;;;;;;;18.30;45.74;100712.19;5069697;28;20441;-64
2022/12/20 02:06:58;;;;;;;18.97;11.60;;;;;;;18.35;45.53;100714.81;5074831;28;20442;-64
2022/12/20 02:09:23;;;;;;;21.13;11.53;;;;;;;18.35;45.69;100714.81;5072084;28;20191;-64
2022/12/20 02:11:56;;;;;;;17.80;11.97;;;;;;;18.34;45.70;100702.56;5071568;28;20164;-64
2022/12/20 02:14:34;;;;;;;19.50;13.27;;;;;;;18.38;45.58;100686.31;5053743;28;20176;-64
2022/12/20 02:17:17;;;;;;;17.00;11.30;;;;;;;18.38;45.72;100689.19;5074354;28;20452;-64
2022/12/20 02:19:57;;;;;;;17.73;12.03;;;;;;;18.35;45.65;100681.34;5037471;28;20433;-64
2022/12/20 02:22:43;;;;;;;18.77;11.93;;;;;;;18.37;45.64;100678.94;5072906;28;20518;-64
2022/12/20 02:25:19;;;;;;;17.37;11.90;;;;;;;18.36;46.03;100677.28;5055909;28;20409;-64
2022/12/20 02:28:09;;;;;;;17.90;12.40;;;;;;;18.37;45.94;100680.97;5055691;28;21063;-64
2022/12/20 02:30:37;;;;;;;18.00;11.67;;;;;;;18.28;46.39;100675.44;5054267;28;20406;-64
2022/12/20 02:33:03;;;;;;;17.37;12.47;;;;;;;18.37;46.45;100690.34;5052982;28;20440;-64
2022/12/20 02:35:31;;;;;;;15.93;11.27;;;;;;;18.28;46.21;100688.88;5059533;28;20447;-64
2022/12/20 02:38:02;;;;;;;15.20;11.40;;;;;;;18.32;46.43;100676.34;5073273;28;20421;-64
2022/12/20 02:40:36;;;;;;;19.40;11.83;;;;;;;18.31;46.14;100679.56;5089092;28;20409;-64
2022/12/20 02:43:03;;;;;;;16.90;11.63;;;;;;;18.28;46.42;100681.16;5053629;28;20662;-64
2022/12/20 02:45:32;;;;;;;20.30;11.87;;;;;;;18.30;46.61;100681.59;5054649;28;20484;-64
2022/12/20 02:48:00;;;;;;;17.10;10.60;;;;;;;18.34;46.51;100690.28;5036423;28;20421;-62
2022/12/20 02:50:37;;;;;;;22.67;11.40;;;;;;;18.26;46.60;100677.81;5071003;28;20418;-62
2022/12/20 02:53:03;;;;;;;19.93;10.80;;;;;;;18.28;46.24;100680.31;5054651;28;20519;-62
2022/12/20 02:55:41;;;;;;;20.23;11.33;;;;;;;18.23;46.45;100684.28;5046865;28;20417;-62
2022/12/20 02:58:15;;;;;;;17.03;11.87;;;;;;;18.20;46.45;100682.16;5043449;28;20434;-62
2022/12/20 03:00:41;;;;;;;14.83;10.53;;;;;;;18.24;46.51;100691.66;5053799;28;20882;-62
2022/12/20 03:03:22;;;;;;;16.73;11.10;;;;;;;18.24;46.73;100699.38;5065142;28;20468;-63
2022/12/20 03:05:48;;;;;;;15.30;10.63;;;;;;;18.23;46.73;100684.28;5087696;28;20432;-63
2022/12/20 03:08:14;;;;;;;15.10;9.97;;;;;;;18.22;46.65;100671.16;5070500;28;20484;-63
2022/12/20 03:10:40;;;;;;;13.13;10.67;;;;;;;18.21;46.83;100668.69;5069967;28;20422;-63
2022/12/20 03:13:05;;;;;;;16.80;10.60;;;;;;;18.23;46.83;100663.44;5072728;28;20205;-63
2022/12/20 03:15:31;;;;;;;14.30;10.80;;;;;;;18.21;46.58;100663.78;5069951;28;20179;-63
2022/12/20 03:17:56;;;;;;;17.17;11.20;;;;;;;18.28;46.60;100654.56;5075718;28;20167;-63
2022/12/20 03:20:22;;;;;;;13.70;11.20;;;;;;;18.23;46.68;100655.69;5088874;28;20163;-63
2022/12/20 03:22:47;;;;;;;16.10;9.97;;;;;;;18.20;46.95;100664.16;5071899;28;20693;-63
2022/12/20 03:25:12;;;;;;;16.63;10.40;;;;;;;18.26;47.03;100660.66;5070116;28;20175;-63
2022/12/20 03:27:38;;;;;;;15.20;10.40;;;;;;;18.21;46.81;100657.28;5072218;28;20230;-63
2022/12/20 03:30:04;;;;;;;16.30;10.30;;;;;;;18.21;46.57;100657.28;5069415;28;20241;-63
2022/12/20 03:32:30;;;;;;;14.67;9.90;;;;;;;18.23;47.03;100655.69;5078684;28;20181;-63
2022/12/20 03:34:55;;;;;;;14.23;10.33;;;;;;;18.20;46.81;100650.72;5086567;28;20430;-63
2022/12/20 03:37:21;;;;;;;13.80;9.87;;;;;;;18.19;46.78;100654.78;5071033;28;20163;-63
2022/12/20 03:39:46;;;;;;;15.30;10.40;;;;;;;18.21;47.03;100652.38;5074517;28;20194;-63
2022/12/20 03:42:11;;;;;;;15.83;9.73;;;;;;;18.23;47.06;100654.84;5069423;28;20199;-63
2022/12/20 03:44:37;;;;;;;14.30;10.00;;;;;;;18.24;47.04;100645.94;5075086;28;20662;-63
2022/12/20 03:47:02;;;;;;;12.07;9.90;;;;;;;18.20;47.04;100655.59;5089458;28;20171;-63
2022/12/20 03:49:28;;;;;;;13.37;9.27;;;;;;;18.18;47.09;100640.84;5088818;28;20193;-63
2022/12/20 03:51:53;;;;;;;17.10;10.67;;;;;;;18.22;47.19;100650.34;5089956;28;20167;-63
2022/12/20 03:54:19;;;;;;;14.10;9.20;;;;;;;18.25;46.79;100650.44;5081915;28;20231;-63
2022/12/20 03:56:44;;;;;;;17.10;10.47;;;;;;;18.28;46.98;100635.41;5069415;28;20205;-63
2022/12/20 03:59:09;;;;;;;14.87;9.80;;;;;;;18.23;46.74;100643.44;5052079;28;20175;-63
2022/12/20 04:01:37;;;;;;;14.40;9.57;;;;;;;18.24;46.67;100645.09;5071547;28;20203;-63
2022/12/20 04:04:02;;;;;;;13.77;9.53;;;;;;;18.20;47.09;100638.44;5080806;28;20190;-63
2022/12/20 04:06:28;;;;;;;16.20;10.17;;;;;;;18.18;47.13;100638.00;5076199;28;20442;-63
2022/12/20 04:08:53;;;;;;;12.40;9.60;;;;;;;18.19;47.31;100634.78;5069769;28;20779;-63
2022/12/20 04:11:19;;;;;;;12.83;9.20;;;;;;;18.23;47.12;100632.00;5051584;28;20168;-63
2022/12/20 04:13:45;;;;;;;12.50;9.10;;;;;;;18.22;47.29;100636.06;5071476;28;20275;-63
2022/12/20 04:16:12;;;;;;;13.50;9.70;;;;;;;18.20;46.87;100632.72;5075882;28;20212;-63
2022/12/20 04:18:37;;;;;;;14.53;9.90;;;;;;;18.18;47.25;100630.25;5056638;28;20402;-63
2022/12/20 04:21:03;;;;;;;13.20;9.13;;;;;;;18.21;47.10;100620.94;5085517;28;21242;-63
2022/12/20 04:23:28;;;;;;;12.50;9.07;;;;;;;18.26;46.72;100623.50;5055644;28;20164;-63
2022/12/20 04:25:54;;;;;;;14.57;9.30;;;;;;;18.21;47.00;100623.78;5073238;28;20171;-63
2022/12/20 04:28:19;;;;;;;11.50;9.00;;;;;;;18.21;47.15;100622.97;5055503;28;20190;-63
2022/12/20 04:30:44;;;;;;;13.63;9.37;;;;;;;18.20;47.34;100629.88;5057563;28;20187;-63
2022/12/20 04:33:10;;;;;;;12.03;8.30;;;;;;;18.24;47.08;100628.78;5073372;28;20167;-63
2022/12/20 04:35:36;;;;;;;12.10;9.20;;;;;;;18.23;46.98;100638.56;5059827;28;20197;-63
2022/12/20 04:38:01;;;;;;;14.27;9.17;;;;;;;18.20;47.21;100629.88;5075225;28;20190;-63
2022/12/20 04:40:27;;;;;;;11.83;8.50;;;;;;;18.19;47.34;100636.78;5093165;28;20420;-63
2022/12/20 04:42:52;;;;;;;13.70;9.27;;;;;;;18.20;47.35;100630.72;5070717;28;20265;-63
2022/12/20 04:45:18;;;;;;;14.17;9.67;;;;;;;18.26;47.28;100620.66;5092469;28;20163;-63
2022/12/20 04:47:43;;;;;;;12.10;8.40;;;;;;;18.17;47.21;100633.50;5090198;28;20183;-63
2022/12/20 04:50:09;;;;;;;11.90;8.70;;;;;;;18.16;47.18;100626.94;5089524;28;20176;-63
2022/12/20 04:55:18;;;;;;;12.37;8.30;;;;;;;18.21;47.11;100620.94;5083138;28;20233;-63
2022/12/20 04:57:43;;;;;;;11.30;8.90;;;;;;;18.22;47.31;100622.59;5092728;28;20417;-63
2022/12/20 05:00:09;;;;;;;10.50;8.87;;;;;;;18.17;47.49;100625.72;5086098;28;20184;-63
2022/12/20 05:02:35;;;;;;;12.00;8.30;;;;;;;18.15;47.23;100618.72;5072948;28;20188;-63
2022/12/20 05:05:00;;;;;;;13.00;9.60;;;;;;;18.20;47.13;100613.56;5087349;28;20192;-63
2022/12/20 05:07:26;;;;;;;11.60;8.90;;;;;;;18.17;47.59;100602.06;5057718;28;20254;-63
2022/12/20 05:09:51;;;;;;;12.27;8.50;;;;;;;18.19;47.20;100591.91;5072671;28;20164;-63
2022/12/20 05:12:17;;;;;;;12.43;8.20;;;;;;;18.19;47.38;100603.34;5070972;28;20527;-63
2022/12/20 05:14:42;;;;;;;11.60;9.00;;;;;;;18.20;47.51;100602.13;5074535;28;20178;-63
2022/12/20 05:17:08;;;;;;;14.27;9.40;;;;;;;18.20;47.45;100613.56;5092481;28;20235;-63
2022/12/20 05:19:34;;;;;;;13.03;8.80;;;;;;;18.18;47.42;100613.13;5092009;28;20215;-63
2022/12/20 05:27:38;;;;;;;11.60;8.60;;;;;;;18.21;47.00;100620.94;5080747;28;20445;-63
2022/12/20 05:30:04;;;;;;;11.07;8.50;;;;;;;18.15;47.60;100636.72;5070550;28;20402;-63
2022/12/20 05:32:30;;;;;;;10.27;8.13;;;;;;;18.17;47.45;100634.28;5053215;28;20187;-63
2022/12/20 05:34:55;;;;;;;10.67;8.40;;;;;;;18.24;47.88;100608.78;5056297;28;20441;-63
2022/12/20 05:37:21;;;;;;;14.77;8.20;;;;;;;18.24;47.00;100605.91;5091573;28;20179;-63
2022/12/20 05:39:46;;;;;;;12.47;7.83;;;;;;;18.23;47.04;100609.13;5088689;28;20183;-63
2022/12/20 05:42:11;;;;;;;11.27;8.10;;;;;;;18.19;47.44;100611.06;5090164;28;20222;-63
2022/12/20 05:44:37;;;;;;;9.87;7.57;;;;;;;18.18;47.46;100592.28;5091591;28;20171;-63
2022/12/20 05:47:02;;;;;;;12.70;8.27;;;;;;;18.22;47.00;100605.44;5087053;28;20176;-63
2022/12/20 05:49:28;;;;;;;10.07;7.53;;;;;;;18.19;47.58;100609.06;5071184;28;20305;-63
2022/12/20 05:51:53;;;;;;;10.37;7.20;;;;;;;18.23;47.46;100615.69;5085703;28;20182;-63
2022/12/20 05:54:19;;;;;;;10.67;7.90;;;;;;;18.22;47.35;100613.19;5084223;28;20737;-63
2022/12/20 05:56:44;;;;;;;11.40;7.83;;;;;;;18.18;47.25;100593.13;5071669;28;20172;-63
2022/12/20 05:59:10;;;;;;;10.37;7.43;;;;;;;18.21;47.31;100600.13;5071242;28;20182;-63
2022/12/20 06:01:35;;;;;;;11.07;8.00;;;;;;;18.23;47.41;100598.53;5073280;28;20199;-63
2022/12/20 06:04:01;;;;;;;12.17;7.83;;;;;;;18.17;47.18;100590.63;5064103;28;20232;-63
2022/12/20 06:06:26;;;;;;;9.93;7.20;;;;;;;18.20;47.44;100587.84;5076921;28;20174;-63
2022/12/20 06:08:52;;;;;;;13.37;8.00;;;;;;;18.15;47.35;100593.00;5072232;28;20195;-63
2022/12/20 06:11:17;;;;;;;12.03;8.10;;;;;;;18.22;47.43;100596.88;5052874;28;20164;-63
2022/12/20 06:13:43;;;;;;;10.87;7.33;;;;;;;18.21;47.41;100583.78;5070243;28;20175;-63
2022/12/20 06:16:08;;;;;;;11.53;7.47;;;;;;;18.22;47.20;100587.47;5072926;28;20175;-63
2022/12/20 06:18:33;;;;;;;10.20;7.67;;;;;;;18.18;47.44;100598.00;5068946;28;20171;-63
2022/12/20 06:20:59;;;;;;;11.43;7.07;;;;;;;18.18;47.25;100600.84;5069366;28;20175;-63
2022/12/20 06:23:24;;;;;;;10.07;7.13;;;;;;;18.15;47.33;100593.00;5071958;28;20184;-63
2022/12/20 06:25:50;;;;;;;9.33;7.60;;;;;;;18.19;47.38;100589.06;5070131;28;20172;-63
2022/12/20 06:28:20;;;;;;;10.70;7.80;;;;;;;18.20;47.24;100596.41;5058362;28;20254;-63
2022/12/20 06:30:51;;;;;;;9.50;7.50;;;;;;;18.17;47.33;100597.16;5091137;28;20199;-63
2022/12/20 06:33:17;;;;;;;8.60;6.53;;;;;;;18.16;47.35;100589.78;5090787;28;20402;-63
2022/12/20 06:35:42;;;;;;;10.87;7.23;;;;;;;18.16;47.48;100601.22;5090773;28;20777;-63
2022/12/20 06:38:08;;;;;;;9.80;6.70;;;;;;;18.14;47.64;100583.63;5087477;28;20175;-63
2022/12/20 06:40:33;;;;;;;9.47;7.70;;;;;;;18.24;47.20;100593.63;5090094;28;20179;-63
2022/12/20 06:42:58;;;;;;;10.37;7.27;;;;;;;18.22;47.69;100574.00;5075302;28;20207;-63
2022/12/20 06:45:24;;;;;;;12.73;7.53;;;;;;;18.22;47.30;100584.63;5088038;28;20198;-63
2022/12/20 06:47:49;;;;;;;10.03;6.83;;;;;;;18.14;47.81;100588.50;5091070;28;20175;-63
2022/12/20 06:50:15;;;;;;;10.83;7.60;;;;;;;18.21;47.20;100583.78;5075316;28;20175;-63
2022/12/20 06:52:40;;;;;;;9.37;7.70;;;;;;;18.19;47.29;100589.06;5070241;28;20251;-63
2022/12/20 06:55:06;;;;;;;11.13;7.23;;;;;;;18.22;47.38;100585.44;5073488;28;20219;-63
2022/12/20 06:57:32;;;;;;;8.27;6.10;;;;;;;18.19;47.41;100573.94;5069849;28;20163;-63
2022/12/20 06:59:57;;;;;;;9.80;7.03;;;;;;;18.17;47.79;100573.47;5070653;28;20171;-63
2022/12/20 07:02:22;;;;;;;10.80;7.37;;;;;;;18.20;47.60;100564.97;5072830;28;20192;-64
2022/12/20 07:04:48;;;;;;;10.00;7.87;;;;;;;18.18;47.47;100581.69;5087036;28;20270;-63
2022/12/20 07:07:13;;;;;;;9.20;6.80;;;;;;;18.18;47.47;100580.84;5089439;28;20202;-63
2022/12/20 07:09:40;;;;;;;10.17;7.17;;;;;;;18.19;47.54;100586.19;5092406;28;20193;-63
2022/12/20 07:12:06;;;;;;;10.03;6.83;;;;;;;18.19;47.56;100591.91;5092485;28;20175;-63
2022/12/20 07:14:32;;;;;;;9.40;6.43;;;;;;;18.20;47.41;100590.72;5076187;28;20425;-63
2022/12/20 07:16:57;;;;;;;8.63;6.73;;;;;;;18.16;47.67;100581.22;5085501;28;20436;-63
2022/12/20 07:19:23;;;;;;;10.43;7.87;;;;;;;18.22;47.64;100578.91;5071866;28;20216;-63
2022/12/20 07:21:48;;;;;;;9.40;7.10;;;;;;;18.17;47.43;100577.16;5052140;28;20217;-63
2022/12/20 07:24:14;;;;;;;8.20;7.27;;;;;;;18.21;47.44;100560.91;5069052;28;20183;-63
2022/12/20 07:26:39;;;;;;;12.50;7.20;;;;;;;18.19;47.29;100562.50;5069068;28;20217;-63
2022/12/20 07:29:05;;;;;;;9.00;6.93;;;;;;;18.20;47.53;100552.72;5071940;28;20196;-63
2022/12/20 07:31:30;;;;;;;14.63;7.17;;;;;;;18.19;47.40;100540.47;5068991;28;20194;-63
2022/12/20 07:33:56;;;;;;;10.13;6.70;;;;;;;18.21;47.70;100540.09;5069215;28;20156;-63
2022/12/20 07:36:21;;;;;;;8.70;6.60;;;;;;;18.22;47.48;100542.56;5073169;28;20505;-63
2022/12/20 07:38:47;;;;;;;8.90;6.50;;;;;;;18.20;47.38;100538.44;5069104;28;20211;-63
2022/12/20 07:41:15;;;;;;;9.40;6.47;;;;;;;18.20;47.46;100547.84;5068906;28;20164;-63
2022/12/20 07:43:40;;;;;;;8.90;6.87;;;;;;;18.23;47.53;100558.53;5068885;28;20757;-63
2022/12/20 07:46:06;;;;;;;7.87;6.53;;;;;;;18.21;47.27;100548.69;5088685;28;20440;-63
2022/12/20 07:48:32;;;;;;;9.17;6.90;;;;;;;18.21;47.47;100548.69;5068438;28;20172;-63
2022/12/20 07:51:03;;;;;;;9.73;7.20;;;;;;;18.11;47.60;100538.63;5050927;28;20172;-63
2022/12/20 07:53:29;;;;;;;9.20;7.20;;;;;;;18.17;47.84;100554.28;5068658;28;20224;-63
2022/12/20 07:55:55;;;;;;;8.97;6.50;;;;;;;18.19;47.48;100546.19;5053283;28;20445;-63
2022/12/20 07:58:20;;;;;;;10.33;7.23;;;;;;;18.18;47.64;100547.41;5068329;28;20403;-63
2022/12/20 08:00:46;;;;;;;9.93;6.80;;;;;;;18.22;47.58;100548.28;5076957;28;20186;-63
2022/12/20 08:03:18;;;;;;;8.33;5.90;;;;;;;18.21;47.62;100551.53;5087670;28;20187;-63
2022/12/20 08:05:45;;;;;;;9.30;7.03;;;;;;;18.22;47.23;100544.63;5063455;28;20179;-63
2022/12/20 08:08:11;;;;;;;9.67;7.10;;;;;;;18.19;47.58;100542.50;5068161;28;20417;-63
2022/12/20 08:10:40;;;;;;;8.90;6.60;;;;;;;18.21;47.49;100534.41;5052403;28;20446;-63
2022/12/20 08:13:05;;;;;;;8.50;6.23;;;;;;;18.23;47.78;100532.81;5067782;28;20172;-63
2022/12/20 08:15:31;;;;;;;8.17;6.80;;;;;;;18.22;47.21;100522.56;5053502;28;20448;-63
2022/12/20 08:17:56;;;;;;;8.03;6.40;;;;;;;18.24;47.30;100537.31;5051301;28;20194;-63
2022/12/20 08:20:22;;;;;;;8.93;6.73;;;;;;;18.24;47.48;100520.19;5069507;28;20180;-63
2022/12/20 08:22:47;;;;;;;10.33;6.97;;;;;;;18.24;47.34;100528.75;5079726;28;20206;-63
2022/12/20 08:25:13;;;;;;;9.53;6.83;;;;;;;18.27;47.38;100524.31;5089113;28;20163;-63
2022/12/20 08:27:38;;;;;;;8.17;6.27;;;;;;;18.26;47.60;100529.19;5069213;28;20183;-63
2022/12/20 08:30:06;;;;;;;8.20;6.50;;;;;;;18.21;47.36;100532.34;5068972;28;20176;-63
2022/12/20 08:32:31;;;;;;;8.50;6.23;;;;;;;18.26;47.26;100523.47;5059539;28;20178;-63
2022/12/20 08:34:57;;;;;;;7.37;6.07;;;;;;;18.28;47.39;100508.81;5086253;28;20425;-63
2022/12/20 08:37:22;;;;;;;8.77;6.80;;;;;;;18.21;47.29;100512.34;5080084;28;20180;-63
2022/12/20 08:39:48;;;;;;;8.43;5.80;;;;;;;18.19;47.54;100509.03;5068739;28;20569;-63
2022/12/20 08:42:14;;;;;;;7.47;5.73;;;;;;;18.24;47.49;100500.16;5084983;28;20274;-63
2022/12/20 08:44:39;;;;;;;7.23;5.33;;;;;;;18.24;47.56;100499.34;5085644;28;20772;-63
2022/12/20 08:47:05;;;;;;;7.67;5.90;;;;;;;18.22;47.37;100499.69;5081472;28;20202;-63
2022/12/20 08:49:30;;;;;;;7.30;5.60;;;;;;;18.25;47.31;100501.81;5084614;28;20201;-63
2022/12/20 08:51:56;;;;;;;9.00;6.23;;;;;;;18.20;47.68;100507.00;5069956;28;20171;-63
2022/12/20 08:54:22;;;;;;;7.97;5.63;;;;;;;18.24;48.01;100503.03;5087931;28;20227;-63
2022/12/20 08:56:47;;;;;;;10.17;7.37;;;;;;;17.86;46.41;100510.69;5086066;28;20653;-63
2022/12/20 08:59:13;;;;;;;13.20;8.50;;;;;;;17.91;48.71;100505.50;5091181;28;20656;-63
2022/12/20 09:01:38;;;;;;;16.00;8.73;;;;;;;18.46;49.86;100510.09;5073976;28;20204;-64
2022/12/20 09:04:04;;;;;;;14.60;8.47;;;;;;;18.84;48.87;100498.63;5084835;28;22167;-64
2022/12/20 09:06:30;;;;;;;13.03;8.10;;;;;;;18.82;47.95;100493.25;5060709;28;20596;-64
2022/12/20 09:08:55;;;;;;;13.67;7.67;;;;;;;18.74;48.09;100510.66;5094397;28;20186;-63
2022/12/20 09:11:23;;;;;;;11.83;7.27;;;;;;;18.65;48.56;100508.03;5073748;28;20492;-64
2022/12/20 09:13:49;;;;;;;14.00;7.27;;;;;;;18.56;49.13;100512.34;5058892;28;20175;-64
2022/12/20 09:16:18;;;;;;;10.77;6.23;;;;;;;18.51;48.54;100506.94;5094964;28;20412;-64
2022/12/20 09:18:47;;;;;;;12.20;7.33;;;;;;;18.55;48.33;100514.38;5068421;28;20429;-64
2022/12/20 09:21:16;;;;;;;10.40;7.00;;;;;;;18.53;48.34;100510.22;5040452;28;20422;-64
2022/12/20 09:23:41;;;;;;;10.37;6.27;;;;;;;18.53;48.09;100513.09;5058834;28;20931;-64
2022/12/20 09:26:09;;;;;;;10.07;7.33;;;;;;;18.56;46.63;100523.78;5068813;28;20438;-64
2022/12/20 09:28:35;;;;;;;9.13;6.70;;;;;;;18.79;47.06;100522.66;5054542;28;21015;-64
2022/12/20 09:31:02;;;;;;;10.30;6.90;;;;;;;18.97;47.28;100520.13;5090499;28;20453;-64
2022/12/20 09:33:28;;;;;;;9.43;6.07;;;;;;;19.00;46.98;100522.22;5075382;28;20182;-63
2022/12/20 09:35:53;;;;;;;13.43;6.50;;;;;;;18.85;46.70;100514.56;5065535;28;20437;-62
2022/12/20 09:38:19;;;;;;;17.50;6.27;;;;;;;18.52;47.55;100520.00;5092454;28;20463;-63
2022/12/20 09:40:49;;;;;;;11.87;7.53;;;;;;;18.25;45.35;100516.13;5077339;28;20214;-64
2022/12/20 09:43:15;;;;;;;8.97;7.23;;;;;;;18.10;44.54;100519.00;5090561;28;20207;-63
2022/12/20 09:45:40;;;;;;;10.33;7.50;;;;;;;18.01;44.30;100510.66;5069260;28;20466;-63
2022/12/20 09:48:15;;;;;;;18.87;8.57;;;;;;;18.00;44.46;100500.44;5068465;28;20187;-63
2022/12/20 09:51:09;;;;;;;13.73;7.27;;;;;;;18.14;44.71;100503.63;5039014;28;20187;-62
2022/12/20 09:53:49;;;;;;;11.33;7.60;;;;;;;18.29;45.08;100505.59;5059722;28;20480;-64
2022/12/20 09:56:19;;;;;;;10.20;6.80;;;;;;;18.37;44.72;100512.31;5089110;28;20478;-62
2022/12/20 09:58:54;;;;;;;13.87;6.57;;;;;;;18.24;45.01;100503.03;5066418;28;20483;-62
2022/12/20 10:01:20;;;;;;;11.30;6.27;;;;;;;18.27;44.95;100507.97;5084479;28;20431;-62
2022/12/20 10:03:46;;;;;;;21.70;6.63;;;;;;;18.24;45.02;100510.75;5055916;28;20928;-62
2022/12/20 10:06:42;;;;;;;9.50;6.03;;;;;;;18.27;44.85;100501.47;5078392;28;20425;-62
2022/12/20 10:09:38;;;;;;;12.30;6.47;;;;;;;18.26;45.64;100502.66;5067439;28;20181;-63
2022/12/20 10:12:19;;;;;;;14.43;6.40;;;;;;;18.48;46.07;100496.22;5048919;28;20412;-62
2022/12/20 10:15:22;;;;;;;20.60;7.27;;;;;;;18.57;46.13;100494.78;5078082;28;20440;-62
2022/12/20 10:18:09;;;;;;;17.40;6.73;;;;;;;18.56;46.49;100493.13;5080895;28;20420;-62
2022/12/20 10:21:20;;;;;;;11.80;5.60;;;;;;;18.54;46.84;100489.00;5067940;28;20434;-62
2022/12/20 10:24:03;;;;;;;18.90;5.70;;;;;;;18.57;46.95;100486.22;5038306;28;20788;-62
2022/12/20 10:26:29;;;;;;;19.60;6.70;;;;;;;18.56;46.54;100470.25;5061064;28;20525;-62
2022/12/20 10:28:54;;;;;;;15.00;6.20;;;;;;;18.56;47.06;100469.47;5060226;28;20407;-62
2022/12/20 10:31:20;;;;;;;10.20;5.53;;;;;;;18.59;47.03;100469.53;5062482;28;20216;-62
2022/12/20 10:33:45;;;;;;;14.87;5.70;;;;;;;18.55;46.97;100462.91;5059311;28;20186;-63
2022/12/20 10:36:16;;;;;;;9.60;5.40;;;;;;;18.54;47.28;100455.53;5079401;28;20625;-62
2022/12/20 10:38:43;;;;;;;16.43;5.73;;;;;;;18.55;47.21;100467.78;5079594;28;20170;-62
2022/12/20 10:41:14;;;;;;;10.03;5.17;;;;;;;18.50;47.51;100454.63;5068028;28;20572;-62
2022/12/20 10:43:42;;;;;;;12.97;5.53;;;;;;;18.47;47.84;100455.38;5029917;28;20413;-63
2022/12/20 10:46:07;;;;;;;6.60;4.50;;;;;;;18.46;47.86;100452.91;5058818;28;20885;-62
2022/12/20 10:48:38;;;;;;;13.30;4.93;;;;;;;18.46;47.72;100453.72;5041593;28;20411;-62
2022/12/20 10:51:15;;;;;;;10.23;5.13;;;;;;;18.40;47.72;100446.66;5062042;28;20773;-62
2022/12/20 10:54:00;;;;;;;16.20;5.67;;;;;;;18.45;47.82;100432.06;5059124;28;20549;-62
2022/12/20 10:56:33;;;;;;;14.50;5.50;;;;;;;18.43;48.08;100414.47;5050347;28;20442;-62
2022/12/20 10:59:00;;;;;;;10.10;5.20;;;;;;;18.39;47.93;100401.28;5041858;28;20398;-62
2022/12/20 11:01:31;;;;;;;15.90;4.90;;;;;;;18.43;47.96;100393.63;5059269;28;20464;-62
2022/12/20 11:04:00;;;;;;;9.73;5.10;;;;;;;18.43;47.89;100394.47;5050760;28;20449;-62
2022/12/20 11:06:42;;;;;;;10.53;5.33;;;;;;;18.44;47.96;100389.56;5064525;28;20499;-62
2022/12/20 11:09:30;;;;;;;17.33;5.13;;;;;;;18.44;48.09;100392.41;5071816;28;21000;-63
2022/12/20 11:12:11;;;;;;;9.97;5.00;;;;;;;18.42;48.34;100395.63;5078731;28;20418;-62
2022/12/20 11:14:40;;;;;;;8.67;4.90;;;;;;;18.41;48.21;100402.56;5046471;28;20417;-62
2022/12/20 11:17:24;;;;;;;10.20;4.97;;;;;;;18.44;48.43;100415.28;5074142;28;20781;-62
2022/12/20 11:19:49;;;;;;;10.80;5.07;;;;;;;18.47;48.36;100403.91;5068637;28;20418;-63
2022/12/20 11:22:33;;;;;;;11.57;5.40;;;;;;;18.41;48.24;100407.47;5078860;28;20449;-63
2022/12/20 11:25:17;;;;;;;8.77;4.70;;;;;;;18.44;48.30;100404.69;5045843;28;20298;-63
2022/12/20 11:28:13;;;;;;;9.20;4.50;;;;;;;18.41;48.50;100399.72;5080963;28;20421;-63
2022/12/20 11:30:53;;;;;;;8.70;5.00;;;;;;;18.43;48.08;100388.75;5058833;28;20556;-63